createdAt,value
2018-09-11T00:00:03.836Z,16.16
2018-09-11T00:05:03.824Z,16.15
2018-09-11T00:10:03.823Z,16.13
2018-09-11T00:15:03.835Z,16.14
2018-09-11T00:20:03.829Z,16.13
2018-09-11T00:25:03.831Z,16.14
2018-09-11T00:30:03.848Z,16.13
2018-09-11T00:35:03.838Z,16.14
2018-09-11T00:40:03.842Z,16.18
2018-09-11T00:45:03.853Z,16.18
2018-09-11T00:50:03.845Z,16.16
2018-09-11T00:55:03.856Z,16.17
2018-09-11T01:00:03.860Z,16.17
2018-09-11T01:05:03.854Z,16.06
2018-09-11T01:10:03.873Z,15.91
2018-09-11T01:15:03.878Z,15.85
2018-09-11T01:20:03.867Z,15.82
2018-09-11T01:25:03.866Z,15.85
2018-09-11T01:30:03.875Z,15.91
2018-09-11T01:35:03.874Z,15.93
2018-09-11T01:40:03.876Z,15.98
2018-09-11T01:45:03.887Z,16.14
2018-09-11T01:50:03.882Z,16.18
2018-09-11T01:55:03.884Z,16.21
2018-09-11T02:00:03.900Z,16.26
2018-09-11T02:05:03.892Z,16.31
2018-09-11T02:10:03.902Z,16.32
2018-09-11T02:15:03.902Z,16.39
2018-09-11T02:20:03.896Z,16.34
2018-09-11T02:25:03.898Z,16.3
2018-09-11T02:30:03.911Z,16.22
2018-09-11T02:35:03.905Z,16.2
2018-09-11T02:40:03.906Z,16.19
2018-09-11T02:45:03.928Z,16.16
2018-09-11T02:50:03.911Z,16.18
2018-09-11T02:55:03.918Z,16.11
2018-09-11T03:00:03.934Z,16.08
2018-09-11T03:05:03.923Z,16.07
2018-09-11T03:10:03.925Z,16.05
2018-09-11T03:15:03.940Z,16.05
2018-09-11T03:20:03.930Z,16.01
2018-09-11T03:25:03.935Z,16
2018-09-11T03:30:03.939Z,16
2018-09-11T03:35:03.935Z,15.98
2018-09-11T03:40:03.940Z,15.92
2018-09-11T03:45:03.950Z,15.85
2018-09-11T03:50:03.950Z,15.77
2018-09-11T03:55:03.949Z,15.71
2018-09-11T04:00:04.018Z,15.6
2018-09-11T04:05:03.956Z,15.61
2018-09-11T04:10:03.952Z,15.61
2018-09-11T04:15:03.984Z,15.54
2018-09-11T04:20:03.957Z,15.43
2018-09-11T04:25:03.963Z,15.26
2018-09-11T04:30:03.972Z,15.12
2018-09-11T04:35:03.964Z,15.07
2018-09-11T04:40:03.972Z,15.12
2018-09-11T04:45:03.978Z,15.24
2018-09-11T04:50:03.978Z,15.29
2018-09-11T04:55:03.976Z,15.26
2018-09-11T05:00:03.994Z,15.22
2018-09-11T05:05:03.985Z,15.21
2018-09-11T05:10:03.989Z,15.17
2018-09-11T05:15:03.997Z,15.23
2018-09-11T05:20:03.993Z,15.24
2018-09-11T05:25:03.997Z,15.32
2018-09-11T05:30:04.012Z,15.45
2018-09-11T05:35:04.003Z,15.49
2018-09-11T05:40:04.004Z,15.56
2018-09-11T05:45:04.021Z,15.62
2018-09-11T05:50:04.008Z,15.68
2018-09-11T05:55:04.012Z,15.75
2018-09-11T06:00:04.020Z,15.75
2018-09-11T06:05:04.020Z,15.75
2018-09-11T06:10:04.017Z,15.75
2018-09-11T06:15:04.026Z,15.85
2018-09-11T06:20:04.029Z,15.89
2018-09-11T06:25:04.025Z,15.98
2018-09-11T06:30:04.050Z,16.17
2018-09-11T06:35:04.034Z,16.45
2018-09-11T06:40:04.035Z,16.88
2018-09-11T06:45:04.048Z,17.24
2018-09-11T06:50:04.043Z,17.39
2018-09-11T06:55:04.043Z,17.54
2018-09-11T07:00:04.062Z,17.52
2018-09-11T07:05:04.047Z,17.28
2018-09-11T07:10:04.053Z,17.17
2018-09-11T07:15:04.059Z,17.28
2018-09-11T07:20:04.194Z,17.45
2018-09-11T07:25:04.061Z,17.55
2018-09-11T07:30:04.082Z,17.65
2018-09-11T07:35:04.063Z,17.59
2018-09-11T07:40:04.064Z,17.61
2018-09-11T07:45:04.074Z,17.78
2018-09-11T07:50:04.071Z,17.92
2018-09-11T07:55:04.097Z,17.99
2018-09-11T08:00:04.085Z,18.04
2018-09-11T08:05:04.137Z,18.22
2018-09-11T08:10:04.091Z,18.46
2018-09-11T08:15:04.095Z,18.65
2018-09-11T08:20:04.110Z,18.81
2018-09-11T08:25:04.112Z,18.92
2018-09-11T08:30:04.097Z,19.04
2018-09-11T08:35:04.096Z,19.3
2018-09-11T08:40:04.102Z,19.53
2018-09-11T08:45:04.110Z,19.85
2018-09-11T08:50:04.105Z,19.91
2018-09-11T08:55:04.107Z,20.03
2018-09-11T09:00:04.122Z,20.27
2018-09-11T09:05:04.112Z,20.71
2018-09-11T09:10:04.197Z,20.93
2018-09-11T09:15:04.130Z,20.84
2018-09-11T09:20:04.122Z,20.89
2018-09-11T09:25:04.124Z,20.95
2018-09-11T09:30:04.144Z,21.54
2018-09-11T09:35:04.122Z,21.9
2018-09-11T09:40:04.129Z,22.29
2018-09-11T09:45:04.153Z,22.36
2018-09-11T09:50:04.138Z,22.58
2018-09-11T09:55:04.143Z,22.68
2018-09-11T10:00:04.161Z,22.69
2018-09-11T10:05:04.146Z,22.87
2018-09-11T10:10:04.152Z,22.99
2018-09-11T10:15:04.170Z,23.39
2018-09-11T10:20:04.156Z,23.56
2018-09-11T10:25:04.159Z,23.41
2018-09-11T10:30:04.164Z,23.8
2018-09-11T10:35:04.160Z,23.81
2018-09-11T10:40:04.167Z,23.69
2018-09-11T10:45:04.280Z,23.58
2018-09-11T10:50:04.175Z,23.45
2018-09-11T10:55:04.171Z,23.44
2018-09-11T11:00:04.175Z,23.53
2018-09-11T11:05:04.199Z,23.72
2018-09-11T11:10:04.180Z,23.88
2018-09-11T11:15:04.189Z,24.02
2018-09-11T11:20:04.185Z,24.33
2018-09-11T11:25:04.194Z,24.36
2018-09-11T11:30:04.190Z,24.62
2018-09-11T11:35:04.194Z,24.78
2018-09-11T11:40:04.198Z,24.88
2018-09-11T11:45:04.204Z,25.18
2018-09-11T11:50:04.200Z,25.66
2018-09-11T11:55:04.266Z,26.26
2018-09-11T12:00:04.224Z,27.23
2018-09-11T12:05:04.210Z,27.1
2018-09-11T12:10:04.211Z,26.84
2018-09-11T12:15:04.224Z,26.73
2018-09-11T12:20:04.220Z,26.97
2018-09-11T12:25:04.219Z,26.92
2018-09-11T12:30:04.230Z,26.68
2018-09-11T12:35:04.238Z,26.45
2018-09-11T12:40:04.229Z,26.15
2018-09-11T12:45:04.238Z,26.03
2018-09-11T12:50:04.233Z,26.16
2018-09-11T12:55:04.237Z,26.26
2018-09-11T13:00:04.254Z,26.3
2018-09-11T13:05:04.244Z,26.26
2018-09-11T13:10:04.246Z,26.25
2018-09-11T13:15:04.269Z,26.01
2018-09-11T13:20:04.249Z,25.92
2018-09-11T13:25:04.256Z,25.77
2018-09-11T13:30:04.291Z,26.06
2018-09-11T13:35:04.259Z,26.12
2018-09-11T13:40:04.259Z,26.26
2018-09-11T13:45:04.268Z,26.45
2018-09-11T13:50:04.267Z,26.64
2018-09-11T13:55:04.269Z,27.7
2018-09-11T14:00:04.283Z,29.31
2018-09-11T14:05:04.276Z,30.81
2018-09-11T14:10:04.273Z,32.04
2018-09-11T14:15:04.293Z,32.56
2018-09-11T14:20:04.282Z,33.65
2018-09-11T14:25:04.289Z,34.08
2018-09-11T14:30:04.295Z,31.97
2018-09-11T14:35:04.288Z,31.6
2018-09-11T14:40:04.315Z,31.45
2018-09-11T14:45:04.316Z,31.98
2018-09-11T14:50:04.312Z,31.54
2018-09-11T14:55:04.305Z,31.88
2018-09-11T15:00:04.313Z,32.18
2018-09-11T15:05:04.313Z,32.18
2018-09-11T15:10:04.310Z,32.58
2018-09-11T15:15:04.418Z,32.09
2018-09-11T15:20:04.311Z,32.3
2018-09-11T15:25:04.324Z,31.83
2018-09-11T15:30:04.408Z,32.55
2018-09-11T15:35:04.333Z,30.12
2018-09-11T15:40:04.334Z,28.31
2018-09-11T15:45:04.348Z,27.37
2018-09-11T15:50:04.337Z,26.8
2018-09-11T15:55:04.353Z,26.45
2018-09-11T16:00:04.344Z,26.2
2018-09-11T16:05:04.359Z,25.74
2018-09-11T16:10:04.364Z,25.48
2018-09-11T16:15:04.455Z,25.3
2018-09-11T16:20:04.363Z,25.19
2018-09-11T16:25:04.348Z,25.07
2018-09-11T16:30:04.406Z,25.03
2018-09-11T16:35:04.353Z,24.94
2018-09-11T16:40:04.382Z,24.9
2018-09-11T16:45:04.367Z,24.79
2018-09-11T16:50:04.367Z,24.75
2018-09-11T16:55:04.364Z,24.68
2018-09-11T17:00:04.375Z,24.63
2018-09-11T17:05:04.371Z,24.53
2018-09-11T17:10:04.371Z,24.41
2018-09-11T17:15:04.379Z,24.29
2018-09-11T17:20:04.381Z,24.13
2018-09-11T17:25:04.381Z,24.06
2018-09-11T17:30:04.392Z,24.01
2018-09-11T17:35:04.392Z,23.98
2018-09-11T17:40:04.386Z,23.87
2018-09-11T17:45:04.411Z,23.82
2018-09-11T17:50:03.403Z,23.76
2018-09-11T17:55:03.403Z,23.71
2018-09-11T18:00:03.408Z,23.68
2018-09-11T18:05:03.406Z,23.62
2018-09-11T18:10:03.404Z,23.61
2018-09-11T18:15:03.413Z,23.57
2018-09-11T18:20:03.463Z,23.53
2018-09-11T18:25:03.418Z,23.42
2018-09-11T18:30:03.416Z,23.32
2018-09-11T18:35:03.425Z,23.24
2018-09-11T18:40:03.447Z,23.17
2018-09-11T18:45:03.495Z,23.12
2018-09-11T18:50:03.428Z,23.05
2018-09-11T18:55:03.429Z,23.03
2018-09-11T19:00:03.434Z,23
2018-09-11T19:05:03.542Z,22.97
2018-09-11T19:10:03.436Z,22.98
2018-09-11T19:15:03.443Z,22.92
2018-09-11T19:20:03.497Z,22.9
2018-09-11T19:25:03.446Z,22.95
2018-09-11T19:30:03.449Z,22.93
2018-09-11T19:35:03.454Z,22.91
2018-09-11T19:40:03.460Z,22.79
2018-09-11T19:45:03.455Z,22.56
2018-09-11T19:50:03.491Z,22.35
2018-09-11T19:55:03.463Z,22.2
2018-09-11T20:00:03.464Z,22.2
2018-09-11T20:05:03.545Z,22.19
2018-09-11T20:10:03.472Z,22.08
2018-09-11T20:15:03.468Z,21.96
2018-09-11T20:20:03.477Z,21.84
2018-09-11T20:25:03.481Z,21.67
2018-09-11T20:30:03.479Z,21.55
2018-09-11T20:35:03.498Z,21.38
2018-09-11T20:40:03.485Z,21.14
2018-09-11T20:45:03.571Z,21
2018-09-11T20:50:03.505Z,20.8
2018-09-11T20:55:03.495Z,20.64
2018-09-11T21:00:03.499Z,20.5
2018-09-11T21:05:03.522Z,20.41
2018-09-11T21:10:03.501Z,20.27
2018-09-11T21:15:03.500Z,20.16
2018-09-11T21:20:03.513Z,20.07
2018-09-11T21:25:03.513Z,20
2018-09-11T21:30:03.513Z,19.87
2018-09-11T21:35:03.529Z,19.77
2018-09-11T21:40:03.517Z,19.71
2018-09-11T21:45:03.525Z,19.75
2018-09-11T21:50:03.531Z,19.8
2018-09-11T21:55:03.524Z,19.91
2018-09-11T22:00:03.573Z,20.03
2018-09-11T22:05:03.549Z,19.92
2018-09-11T22:10:03.531Z,19.84
2018-09-11T22:15:03.536Z,19.81
2018-09-11T22:20:03.555Z,19.62
2018-09-11T22:25:03.552Z,19.5
2018-09-11T22:30:03.546Z,19.42
2018-09-11T22:35:03.562Z,19.41
2018-09-11T22:40:03.552Z,19.3
2018-09-11T22:45:03.557Z,19.2
2018-09-11T22:50:03.559Z,19.11
2018-09-11T22:55:03.559Z,19.26
2018-09-11T23:00:03.567Z,19.37
2018-09-11T23:05:03.567Z,19.41
2018-09-11T23:10:03.564Z,19.44
2018-09-11T23:15:03.566Z,19.4
2018-09-11T23:20:03.577Z,19.39
2018-09-11T23:25:03.576Z,19.45
2018-09-11T23:30:03.578Z,19.58
2018-09-11T23:35:03.583Z,19.63
2018-09-11T23:40:03.580Z,19.72
2018-09-11T23:45:03.581Z,19.76
2018-09-11T23:50:03.602Z,19.83
2018-09-11T23:55:03.594Z,19.88
